createdAt,value
2023-02-09T00:00:51.710Z,10.83
2023-02-09T00:02:53.497Z,11.87
2023-02-09T00:04:55.195Z,12.23
2023-02-09T00:06:56.997Z,12.17
2023-02-09T00:08:59.599Z,16.03
2023-02-09T00:11:05.002Z,13.50
2023-02-09T00:13:24.735Z,12.20
2023-02-09T00:15:26.410Z,13.43
2023-02-09T00:17:28.098Z,11.70
2023-02-09T00:19:31.741Z,12.40
2023-02-09T00:21:34.816Z,11.50
2023-02-09T00:23:39.608Z,11.37
2023-02-09T00:25:41.257Z,11.20
2023-02-09T00:27:42.982Z,9.80
2023-02-09T00:29:44.861Z,11.00
2023-02-09T00:31:46.637Z,9.93
2023-02-09T00:33:48.551Z,12.10
2023-02-09T00:35:50.178Z,10.23
2023-02-09T00:37:51.815Z,10.40
2023-02-09T00:39:53.460Z,11.13
2023-02-09T00:42:07.274Z,13.17
2023-02-09T00:44:10.040Z,12.13
2023-02-09T00:46:11.665Z,12.90
2023-02-09T00:48:13.320Z,12.37
2023-02-09T00:50:15.066Z,11.37
2023-02-09T00:52:16.761Z,11.80
2023-02-09T00:54:18.419Z,12.30
2023-02-09T00:56:20.078Z,11.50
2023-02-09T00:58:21.765Z,10.47
2023-02-09T01:00:23.555Z,11.67
2023-02-09T01:02:25.347Z,12.17
2023-02-09T01:04:27.427Z,10.77
2023-02-09T01:06:29.286Z,11.67
2023-02-09T01:08:30.943Z,9.90
2023-02-09T01:10:33.886Z,11.27
2023-02-09T01:12:35.546Z,11.33
2023-02-09T01:14:38.637Z,11.13
2023-02-09T01:16:40.365Z,10.00
2023-02-09T01:18:43.233Z,11.93
2023-02-09T01:20:45.160Z,10.40
2023-02-09T01:22:47.005Z,11.67
2023-02-09T01:24:48.800Z,10.60
2023-02-09T01:26:50.451Z,11.80
2023-02-09T01:28:53.436Z,12.30
2023-02-09T01:30:55.229Z,13.17
2023-02-09T01:32:56.947Z,12.87
2023-02-09T01:34:58.590Z,12.27
2023-02-09T01:37:00.178Z,11.30
2023-02-09T01:39:02.713Z,13.20
2023-02-09T01:41:04.381Z,12.73
2023-02-09T01:43:06.020Z,12.57
2023-02-09T01:45:07.941Z,13.63
2023-02-09T01:47:19.605Z,11.47
2023-02-09T01:49:27.134Z,12.43
2023-02-09T01:51:29.519Z,10.40
2023-02-09T01:53:32.467Z,10.87
2023-02-09T01:55:37.525Z,13.30
2023-02-09T01:57:46.619Z,11.83
2023-02-09T01:59:52.222Z,11.73
2023-02-09T02:01:53.905Z,10.37
2023-02-09T02:03:55.686Z,12.47
2023-02-09T02:06:02.689Z,11.63
2023-02-09T02:08:20.905Z,12.30
2023-02-09T02:10:22.651Z,11.43
2023-02-09T02:12:24.822Z,11.53
2023-02-09T02:14:38.030Z,11.30
2023-02-09T02:16:58.018Z,13.30
2023-02-09T02:19:29.939Z,10.13
2023-02-09T02:22:01.103Z,12.27
2023-02-09T02:24:50.844Z,11.10
2023-02-09T02:26:58.670Z,11.40
2023-02-09T02:29:37.989Z,11.93
2023-02-09T02:31:58.174Z,11.50
2023-02-09T02:34:18.228Z,11.30
2023-02-09T02:36:34.788Z,11.83
2023-02-09T02:38:49.538Z,11.83
2023-02-09T02:41:19.243Z,10.77
2023-02-09T02:43:57.998Z,11.93
2023-02-09T02:46:04.380Z,10.47
2023-02-09T02:48:24.920Z,9.77
2023-02-09T02:50:27.966Z,10.53
2023-02-09T02:52:29.656Z,12.07
2023-02-09T02:54:42.015Z,11.77
2023-02-09T02:56:46.805Z,10.53
2023-02-09T02:58:50.298Z,11.47
2023-02-09T03:00:54.761Z,10.63
2023-02-09T03:03:00.337Z,10.40
2023-02-09T03:05:03.432Z,10.67
2023-02-09T03:07:08.529Z,10.30
2023-02-09T03:09:10.212Z,12.20
2023-02-09T03:11:12.091Z,11.93
2023-02-09T03:13:16.588Z,11.80
2023-02-09T03:15:39.532Z,9.87
2023-02-09T03:17:53.030Z,12.13
2023-02-09T03:20:04.098Z,10.37
2023-02-09T03:22:06.776Z,11.27
2023-02-09T03:24:42.528Z,11.83
2023-02-09T03:26:53.804Z,10.93
2023-02-09T03:28:57.318Z,10.13
2023-02-09T03:30:59.266Z,11.17
2023-02-09T03:33:03.008Z,11.43
2023-02-09T03:35:05.711Z,11.37
2023-02-09T03:37:07.423Z,12.47
2023-02-09T03:39:09.145Z,12.43
2023-02-09T03:41:10.915Z,10.70
2023-02-09T03:43:12.911Z,11.30
2023-02-09T03:45:14.640Z,10.77
2023-02-09T03:47:16.324Z,10.90
2023-02-09T03:49:17.929Z,11.73
2023-02-09T03:51:19.578Z,11.80
2023-02-09T03:53:21.281Z,9.97
2023-02-09T03:55:22.877Z,10.53
2023-02-09T03:57:24.700Z,10.50
2023-02-09T03:59:26.965Z,11.93
2023-02-09T04:01:28.586Z,11.27
2023-02-09T04:03:30.729Z,12.83
2023-02-09T04:05:32.410Z,11.07
2023-02-09T04:07:34.061Z,10.30
2023-02-09T04:09:37.557Z,11.10
2023-02-09T04:11:39.284Z,11.27
2023-02-09T04:13:40.990Z,11.13
2023-02-09T04:15:42.656Z,10.80
2023-02-09T04:17:44.310Z,11.37
2023-02-09T04:19:45.957Z,12.07
2023-02-09T04:21:47.600Z,11.13
2023-02-09T04:23:49.280Z,10.43
2023-02-09T04:25:50.933Z,10.77
2023-02-09T04:27:52.659Z,10.27
2023-02-09T04:29:54.304Z,11.50
2023-02-09T04:31:56.147Z,11.73
2023-02-09T04:33:57.988Z,10.83
2023-02-09T04:35:59.863Z,11.87
2023-02-09T04:38:01.494Z,11.93
2023-02-09T04:40:03.334Z,10.43
2023-02-09T04:42:05.048Z,11.00
2023-02-09T04:44:06.750Z,12.40
2023-02-09T04:46:16.236Z,12.20
2023-02-09T04:48:20.340Z,10.90
2023-02-09T04:50:21.909Z,9.83
2023-02-09T04:52:23.569Z,11.10
2023-02-09T04:54:25.313Z,8.80
2023-02-09T04:56:27.015Z,10.30
2023-02-09T04:58:50.241Z,10.70
2023-02-09T05:00:51.936Z,12.00
2023-02-09T05:02:54.685Z,10.27
2023-02-09T05:04:56.563Z,11.07
2023-02-09T05:06:58.186Z,12.53
2023-02-09T05:08:59.827Z,13.77
2023-02-09T05:11:01.598Z,16.80
2023-02-09T05:13:03.324Z,15.87
2023-02-09T05:15:05.276Z,18.73
2023-02-09T05:17:07.009Z,12.80
2023-02-09T05:19:08.656Z,16.10
2023-02-09T05:21:10.344Z,11.87
2023-02-09T05:23:12.700Z,11.83
2023-02-09T05:25:14.278Z,11.60
2023-02-09T05:27:18.591Z,11.53
2023-02-09T05:29:22.149Z,12.20
2023-02-09T05:31:24.021Z,13.20
2023-02-09T05:33:26.452Z,12.53
2023-02-09T05:35:28.078Z,12.67
2023-02-09T05:37:29.705Z,11.47
2023-02-09T05:39:31.307Z,11.90
2023-02-09T05:41:51.422Z,10.77
2023-02-09T05:43:53.050Z,11.67
2023-02-09T05:45:54.703Z,12.07
2023-02-09T05:47:56.466Z,12.43
2023-02-09T05:49:58.110Z,13.80
2023-02-09T05:51:59.913Z,13.20
2023-02-09T05:54:01.579Z,14.93
2023-02-09T05:56:03.219Z,15.60
2023-02-09T05:58:04.897Z,14.13
2023-02-09T06:00:07.168Z,11.87
2023-02-09T06:02:09.337Z,14.30
2023-02-09T06:04:11.007Z,15.07
2023-02-09T06:06:12.666Z,13.90
2023-02-09T06:08:14.480Z,12.60
2023-02-09T06:10:17.242Z,13.57
2023-02-09T06:12:18.870Z,11.27
2023-02-09T06:14:20.714Z,13.73
2023-02-09T06:16:25.915Z,12.43
2023-02-09T06:18:27.672Z,12.63
2023-02-09T06:20:29.361Z,11.60
2023-02-09T06:22:31.898Z,12.37
2023-02-09T06:24:36.356Z,10.50
2023-02-09T06:26:38.198Z,12.23
2023-02-09T06:28:40.079Z,11.67
2023-02-09T06:30:41.863Z,10.93
2023-02-09T06:32:43.716Z,12.63
2023-02-09T06:34:45.460Z,10.77
2023-02-09T06:36:47.311Z,12.00
2023-02-09T06:38:48.974Z,12.87
2023-02-09T06:40:50.657Z,15.23
2023-02-09T06:42:52.540Z,13.47
2023-02-09T06:44:59.506Z,13.93
2023-02-09T06:47:01.294Z,13.50
2023-02-09T06:49:03.008Z,11.00
2023-02-09T06:51:12.725Z,11.83
2023-02-09T06:53:14.830Z,12.73
2023-02-09T06:55:16.805Z,12.67
2023-02-09T06:57:18.603Z,10.53
2023-02-09T06:59:20.380Z,14.30
2023-02-09T07:01:22.236Z,14.07
2023-02-09T07:03:23.916Z,12.57
2023-02-09T07:05:26.122Z,11.00
2023-02-09T07:07:27.988Z,10.27
2023-02-09T07:09:29.615Z,9.87
2023-02-09T07:11:31.301Z,11.97
2023-02-09T07:13:33.578Z,11.37
2023-02-09T07:15:35.463Z,9.70
2023-02-09T07:17:37.346Z,11.30
2023-02-09T07:19:39.028Z,11.87
2023-02-09T07:21:43.305Z,11.67
2023-02-09T07:23:46.194Z,13.10
2023-02-09T07:25:47.795Z,12.20
2023-02-09T07:27:52.156Z,11.53
2023-02-09T07:29:53.992Z,14.03
2023-02-09T07:32:02.070Z,13.37
2023-02-09T07:34:04.015Z,14.90
2023-02-09T07:36:09.660Z,14.00
2023-02-09T07:38:11.978Z,13.23
2023-02-09T07:40:13.801Z,13.93
2023-02-09T07:42:15.839Z,12.97
2023-02-09T07:44:17.831Z,11.50
2023-02-09T07:46:21.491Z,13.97
2023-02-09T07:48:25.445Z,12.30
2023-02-09T07:50:27.281Z,16.67
2023-02-09T07:52:29.056Z,17.20
2023-02-09T07:54:30.793Z,18.50
2023-02-09T07:56:32.385Z,19.07
2023-02-09T07:58:35.268Z,16.33
2023-02-09T08:00:37.166Z,15.83
2023-02-09T08:02:39.319Z,15.77
2023-02-09T08:04:40.958Z,12.93
2023-02-09T08:06:46.238Z,15.33
2023-02-09T08:08:50.138Z,15.10
2023-02-09T08:10:52.511Z,14.90
2023-02-09T08:13:02.644Z,14.23
2023-02-09T08:15:05.481Z,14.13
2023-02-09T08:17:20.239Z,12.30
2023-02-09T08:19:23.475Z,12.70
2023-02-09T08:21:26.347Z,10.03
2023-02-09T08:23:34.507Z,11.67
2023-02-09T08:25:36.369Z,11.30
2023-02-09T08:27:39.736Z,12.40
2023-02-09T08:29:41.394Z,11.23
2023-02-09T08:31:43.217Z,11.20
2023-02-09T08:33:46.828Z,8.50
2023-02-09T08:35:52.385Z,9.48
2023-02-09T08:37:54.137Z,10.00
2023-02-09T08:39:55.785Z,12.35
2023-02-09T08:41:57.469Z,10.88
2023-02-09T08:43:59.078Z,11.45
2023-02-09T08:46:05.776Z,11.18
2023-02-09T08:48:11.359Z,10.65
2023-02-09T08:50:12.994Z,11.05
2023-02-09T08:52:15.741Z,9.63
2023-02-09T08:54:17.372Z,10.15
2023-02-09T08:56:20.281Z,10.68
2023-02-09T08:58:21.978Z,10.50
2023-02-09T09:00:23.685Z,8.98
2023-02-09T09:02:25.801Z,9.32
2023-02-09T09:04:39.554Z,9.88
2023-02-09T09:06:41.479Z,9.95
2023-02-09T09:08:43.192Z,8.40
2023-02-09T09:10:46.005Z,9.40
2023-02-09T09:13:02.575Z,9.48
2023-02-09T09:15:07.363Z,9.43
2023-02-09T09:17:09.039Z,10.95
2023-02-09T09:19:10.739Z,8.68
2023-02-09T09:21:24.676Z,9.70
2023-02-09T09:23:29.503Z,10.32
2023-02-09T09:25:33.321Z,9.15
2023-02-09T09:27:36.169Z,10.40
2023-02-09T09:29:44.940Z,8.40
2023-02-09T09:31:46.858Z,9.57
2023-02-09T09:33:48.812Z,9.23
2023-02-09T09:35:50.431Z,10.13
2023-02-09T09:37:53.277Z,9.68
2023-02-09T09:39:55.101Z,10.13
2023-02-09T09:41:59.890Z,9.93
2023-02-09T09:44:03.549Z,8.82
2023-02-09T09:46:07.535Z,10.02
2023-02-09T09:48:26.924Z,11.45
2023-02-09T09:50:41.741Z,9.93
2023-02-09T09:52:47.688Z,9.93
2023-02-09T09:54:54.237Z,8.38
2023-02-09T09:56:59.325Z,10.88
2023-02-09T09:59:01.769Z,10.88
2023-02-09T10:01:03.860Z,10.77
2023-02-09T10:03:17.213Z,11.85
2023-02-09T10:05:25.060Z,11.85
2023-02-09T10:07:31.660Z,10.38
2023-02-09T10:09:36.023Z,11.15
2023-02-09T10:11:51.231Z,10.57
2023-02-09T10:13:54.859Z,12.10
2023-02-09T10:15:57.417Z,10.35
2023-02-09T10:17:59.734Z,10.48
2023-02-09T10:20:05.792Z,10.73
2023-02-09T10:22:13.097Z,11.68
2023-02-09T10:24:22.078Z,13.30
2023-02-09T10:26:25.908Z,11.70
2023-02-09T10:28:33.664Z,11.57
2023-02-09T10:30:35.499Z,9.65
2023-02-09T10:32:39.997Z,10.85
2023-02-09T10:34:48.637Z,11.23
2023-02-09T10:37:06.761Z,10.48
2023-02-09T10:39:11.348Z,9.27
2023-02-09T10:41:14.105Z,10.82
2023-02-09T10:43:20.781Z,12.23
2023-02-09T10:45:27.783Z,11.07
2023-02-09T10:47:31.105Z,11.57
2023-02-09T10:49:38.486Z,11.82
2023-02-09T10:51:40.071Z,10.90
2023-02-09T10:53:53.693Z,10.98
2023-02-09T10:56:05.517Z,11.63
2023-02-09T10:58:18.209Z,11.93
2023-02-09T11:00:24.714Z,11.52
2023-02-09T11:02:41.513Z,11.13
2023-02-09T11:04:47.750Z,10.90
2023-02-09T11:06:58.879Z,12.23
2023-02-09T11:09:08.022Z,12.13
2023-02-09T11:11:21.663Z,12.43
2023-02-09T11:13:26.065Z,11.88
2023-02-09T11:15:35.147Z,11.95
2023-02-09T11:17:45.749Z,11.02
2023-02-09T11:20:05.264Z,12.23
2023-02-09T11:22:34.382Z,10.95
2023-02-09T11:25:01.958Z,10.73
2023-02-09T11:27:11.451Z,11.18
2023-02-09T11:29:25.301Z,12.93
2023-02-09T11:31:56.823Z,12.27
2023-02-09T11:33:58.505Z,10.90
2023-02-09T11:36:00.088Z,11.35
2023-02-09T11:38:26.873Z,12.00
2023-02-09T11:40:42.006Z,11.43
2023-02-09T11:42:49.034Z,11.60
2023-02-09T11:45:10.926Z,12.13
2023-02-09T11:47:22.922Z,12.98
2023-02-09T11:49:27.324Z,12.10
2023-02-09T11:51:31.585Z,11.65
2023-02-09T11:53:47.835Z,11.77
2023-02-09T11:56:01.910Z,12.70
2023-02-09T11:58:38.673Z,12.18
2023-02-09T12:00:57.749Z,12.90
2023-02-09T12:03:14.405Z,11.35
2023-02-09T12:05:18.293Z,11.88
2023-02-09T12:07:49.342Z,12.30
2023-02-09T12:10:18.895Z,11.20
2023-02-09T12:12:39.854Z,12.55
2023-02-09T12:14:50.626Z,11.25
2023-02-09T12:17:27.084Z,11.00
2023-02-09T12:19:34.669Z,11.80
2023-02-09T12:21:38.438Z,10.85
2023-02-09T12:23:42.239Z,10.95
2023-02-09T12:25:53.117Z,10.98
2023-02-09T12:28:24.426Z,11.40
2023-02-09T12:30:41.128Z,11.05
2023-02-09T12:32:44.548Z,12.30
2023-02-09T12:34:49.620Z,11.68
2023-02-09T12:37:13.257Z,11.20
2023-02-09T12:39:24.909Z,10.48
2023-02-09T12:41:29.328Z,9.75
2023-02-09T12:43:32.698Z,10.60
2023-02-09T12:45:44.726Z,11.52
2023-02-09T12:47:56.650Z,10.38
2023-02-09T12:50:05.510Z,10.02
2023-02-09T12:52:15.006Z,10.40
2023-02-09T12:54:35.313Z,10.88
2023-02-09T12:56:39.026Z,9.40
2023-02-09T12:58:43.879Z,12.10
2023-02-09T13:00:54.154Z,11.10
2023-02-09T13:02:56.856Z,10.27
2023-02-09T13:05:02.166Z,10.82
2023-02-09T13:07:06.774Z,9.18
2023-02-09T13:09:11.222Z,11.32
2023-02-09T13:11:23.777Z,10.55
2023-02-09T13:13:35.442Z,9.35
2023-02-09T13:16:00.224Z,10.35
2023-02-09T13:18:08.780Z,9.90
2023-02-09T13:20:28.699Z,9.70
2023-02-09T13:22:57.721Z,10.52
2023-02-09T13:25:01.235Z,10.52
2023-02-09T13:27:02.972Z,10.85
2023-02-09T13:29:22.220Z,11.05
2023-02-09T13:31:31.496Z,8.70
2023-02-09T13:33:40.669Z,10.95
2023-02-09T13:36:03.409Z,10.73
2023-02-09T13:38:19.104Z,10.10
2023-02-09T13:40:20.691Z,9.05
2023-02-09T13:42:25.365Z,10.48
2023-02-09T13:44:29.314Z,9.93
2023-02-09T13:46:35.148Z,9.10
2023-02-09T13:48:39.339Z,11.43
2023-02-09T13:50:47.496Z,9.75
2023-02-09T13:52:52.236Z,11.43
2023-02-09T13:54:54.495Z,10.02
2023-02-09T13:57:01.565Z,10.77
2023-02-09T13:59:03.921Z,10.45
2023-02-09T14:01:08.302Z,9.32
2023-02-09T14:03:57.500Z,9.68
2023-02-09T14:06:09.187Z,9.43
2023-02-09T14:08:13.334Z,9.77
2023-02-09T14:10:20.054Z,9.98
2023-02-09T14:12:51.824Z,9.82
2023-02-09T14:15:20.573Z,7.93
2023-02-09T14:17:32.659Z,8.82
2023-02-09T14:19:34.583Z,9.38
2023-02-09T14:21:40.218Z,8.82
2023-02-09T14:23:50.140Z,9.80
2023-02-09T14:26:15.496Z,10.00
2023-02-09T14:28:19.994Z,10.98
2023-02-09T14:30:21.627Z,8.82
2023-02-09T14:32:38.102Z,8.48
2023-02-09T14:34:40.559Z,9.73
2023-02-09T14:36:51.692Z,10.68
2023-02-09T14:39:17.039Z,9.68
2023-02-09T14:41:32.956Z,9.00
2023-02-09T14:43:34.605Z,8.43
2023-02-09T14:45:44.727Z,9.32
2023-02-09T14:47:46.646Z,8.35
2023-02-09T14:49:48.274Z,11.10
2023-02-09T14:51:52.739Z,10.90
2023-02-09T14:53:54.828Z,9.05
2023-02-09T14:55:57.739Z,10.25
2023-02-09T14:57:59.355Z,8.55
2023-02-09T15:00:00.931Z,8.82
2023-02-09T15:02:02.675Z,9.65
2023-02-09T15:04:04.289Z,9.38
2023-02-09T15:06:06.106Z,9.52
2023-02-09T15:08:12.438Z,8.70
2023-02-09T15:10:26.362Z,9.38
2023-02-09T15:12:28.488Z,9.40
2023-02-09T15:14:31.586Z,8.85
2023-02-09T15:16:33.217Z,9.60
2023-02-09T15:18:36.188Z,8.48
2023-02-09T15:20:37.777Z,9.50
2023-02-09T15:22:39.391Z,10.77
2023-02-09T15:24:45.472Z,8.32
2023-02-09T15:26:47.629Z,8.50
2023-02-09T15:28:49.374Z,8.43
2023-02-09T15:30:51.030Z,8.57
2023-02-09T15:32:53.219Z,9.05
2023-02-09T15:34:54.962Z,8.60
2023-02-09T15:36:56.552Z,8.50
2023-02-09T15:38:58.724Z,9.13
2023-02-09T15:41:18.864Z,9.77
2023-02-09T15:43:41.083Z,8.73
2023-02-09T15:46:01.298Z,8.40
2023-02-09T15:48:03.585Z,8.77
2023-02-09T15:50:05.345Z,9.75
2023-02-09T15:52:07.492Z,10.52
2023-02-09T15:54:15.249Z,10.90
2023-02-09T15:56:16.975Z,10.18
2023-02-09T15:58:35.671Z,10.40
2023-02-09T16:00:37.418Z,9.13
2023-02-09T16:02:39.001Z,11.35
2023-02-09T16:04:40.764Z,10.35
2023-02-09T16:06:51.473Z,9.85
2023-02-09T16:08:54.011Z,9.88
2023-02-09T16:10:56.177Z,10.93
2023-02-09T16:12:57.919Z,8.73
2023-02-09T16:14:59.559Z,9.90
2023-02-09T16:17:01.375Z,11.07
2023-02-09T16:19:03.193Z,11.93
2023-02-09T16:21:06.563Z,10.70
2023-02-09T16:23:20.211Z,8.95
2023-02-09T16:25:26.227Z,9.15
2023-02-09T16:27:28.632Z,8.95
2023-02-09T16:29:30.623Z,10.80
2023-02-09T16:31:32.270Z,11.65
2023-02-09T16:33:35.528Z,10.82
2023-02-09T16:35:37.427Z,12.30
2023-02-09T16:37:39.825Z,10.70
2023-02-09T16:39:41.624Z,11.90
2023-02-09T16:41:53.615Z,10.55
2023-02-09T16:43:55.337Z,10.07
2023-02-09T16:46:03.377Z,9.65
2023-02-09T16:48:06.302Z,10.05
2023-02-09T16:50:26.571Z,9.15
2023-02-09T16:52:30.312Z,10.43
2023-02-09T16:54:39.844Z,9.93
2023-02-09T16:56:53.647Z,10.75
2023-02-09T16:58:55.560Z,10.05
2023-02-09T17:00:57.939Z,11.02
2023-02-09T17:03:04.767Z,12.15
2023-02-09T17:05:21.483Z,11.05
2023-02-09T17:07:30.081Z,11.00
2023-02-09T17:09:31.825Z,11.45
2023-02-09T17:11:33.496Z,12.65
2023-02-09T17:13:35.133Z,18.38
2023-02-09T17:15:45.444Z,16.73
2023-02-09T17:17:51.768Z,13.57
2023-02-09T17:19:53.939Z,14.70
2023-02-09T17:21:58.768Z,14.00
2023-02-09T17:24:00.666Z,13.63
2023-02-09T17:26:03.179Z,15.63
2023-02-09T17:28:05.726Z,11.82
2023-02-09T17:30:09.742Z,11.23
2023-02-09T17:32:14.798Z,13.48
2023-02-09T17:34:17.033Z,12.82
2023-02-09T17:36:26.385Z,11.95
2023-02-09T17:38:32.329Z,10.68
2023-02-09T17:40:35.292Z,11.80
2023-02-09T17:42:37.155Z,12.52
2023-02-09T17:44:46.153Z,12.15
2023-02-09T17:46:49.533Z,11.95
2023-02-09T17:48:51.238Z,9.95
2023-02-09T17:50:56.922Z,10.68
2023-02-09T17:53:00.439Z,10.07
2023-02-09T17:55:02.101Z,9.73
2023-02-09T17:57:03.795Z,8.85
2023-02-09T17:59:08.303Z,8.95
2023-02-09T18:01:29.149Z,9.60
2023-02-09T18:03:30.860Z,9.27
2023-02-09T18:05:36.009Z,8.65
2023-02-09T18:07:37.610Z,10.40
2023-02-09T18:09:39.379Z,12.05
2023-02-09T18:11:47.361Z,11.07
2023-02-09T18:13:49.049Z,12.70
2023-02-09T18:15:52.264Z,14.13
2023-02-09T18:17:54.252Z,13.85
2023-02-09T18:19:56.908Z,12.45
2023-02-09T18:21:59.906Z,12.95
2023-02-09T18:24:01.588Z,13.27
2023-02-09T18:26:03.195Z,14.32
2023-02-09T18:28:06.642Z,15.10
2023-02-09T18:30:08.771Z,17.48
2023-02-09T18:32:13.223Z,17.17
2023-02-09T18:34:15.620Z,15.57
2023-02-09T18:36:17.290Z,14.00
2023-02-09T18:38:18.857Z,14.35
2023-02-09T18:40:20.447Z,15.25
2023-02-09T18:42:22.057Z,13.45
2023-02-09T18:44:29.061Z,15.07
2023-02-09T18:46:31.052Z,13.82
2023-02-09T18:48:32.797Z,12.60
2023-02-09T18:50:34.434Z,12.23
2023-02-09T18:53:00.135Z,14.38
2023-02-09T18:55:02.234Z,14.93
2023-02-09T18:57:03.871Z,12.45
2023-02-09T18:59:05.938Z,12.57
2023-02-09T19:01:13.374Z,12.07
2023-02-09T19:03:17.698Z,12.25
2023-02-09T19:05:19.502Z,11.32
2023-02-09T19:07:21.226Z,9.55
2023-02-09T19:09:22.893Z,11.60
2023-02-09T19:11:24.533Z,13.07
2023-02-09T19:13:26.141Z,12.13
2023-02-09T19:15:27.833Z,11.38
2023-02-09T19:17:29.922Z,13.82
2023-02-09T19:19:31.562Z,13.65
2023-02-09T19:21:33.244Z,10.90
2023-02-09T19:23:34.865Z,12.35
2023-02-09T19:25:36.516Z,13.52
2023-02-09T19:27:38.106Z,14.25
2023-02-09T19:29:43.596Z,13.15
2023-02-09T19:31:46.534Z,13.45
2023-02-09T19:33:48.174Z,14.98
2023-02-09T19:35:57.514Z,14.10
2023-02-09T19:37:59.339Z,12.13
2023-02-09T19:40:04.923Z,13.87
2023-02-09T19:42:07.307Z,13.25
2023-02-09T19:44:09.009Z,12.27
2023-02-09T19:46:10.678Z,16.07
2023-02-09T19:48:12.485Z,14.10
2023-02-09T19:50:15.968Z,15.30
2023-02-09T19:52:17.546Z,15.70
2023-02-09T19:54:19.254Z,15.67
2023-02-09T19:56:23.334Z,17.90
2023-02-09T19:58:25.128Z,20.55
2023-02-09T20:00:26.759Z,22.40
2023-02-09T20:02:28.493Z,21.50
2023-02-09T20:04:30.248Z,20.20
2023-02-09T20:06:33.872Z,21.03
2023-02-09T20:08:37.056Z,20.80
2023-02-09T20:10:39.620Z,21.80
2023-02-09T20:12:41.788Z,21.33
2023-02-09T20:14:43.426Z,20.13
2023-02-09T20:16:45.018Z,16.47
2023-02-09T20:18:49.524Z,12.70
2023-02-09T20:20:51.155Z,14.90
2023-02-09T20:22:52.755Z,11.47
2023-02-09T20:24:54.406Z,12.67
2023-02-09T20:26:56.040Z,12.82
2023-02-09T20:28:58.958Z,13.27
2023-02-09T20:31:00.668Z,13.07
2023-02-09T20:33:02.598Z,12.83
2023-02-09T20:35:05.267Z,15.53
2023-02-09T20:37:06.892Z,14.10
2023-02-09T20:39:13.406Z,12.73
2023-02-09T20:41:17.685Z,14.83
2023-02-09T20:43:38.024Z,13.30
2023-02-09T20:45:58.223Z,14.33
2023-02-09T20:47:59.935Z,15.80
2023-02-09T20:50:01.616Z,15.70
2023-02-09T20:52:03.265Z,15.57
2023-02-09T20:54:05.526Z,18.13
2023-02-09T20:56:07.340Z,15.93
2023-02-09T20:58:12.773Z,15.47
2023-02-09T21:00:14.904Z,13.20
2023-02-09T21:02:16.550Z,14.97
2023-02-09T21:04:18.301Z,13.47
2023-02-09T21:06:20.877Z,14.47
2023-02-09T21:08:23.829Z,13.70
2023-02-09T21:10:25.882Z,14.20
2023-02-09T21:12:27.566Z,12.53
2023-02-09T21:14:41.220Z,12.97
2023-02-09T21:16:43.549Z,13.07
2023-02-09T21:18:45.847Z,13.07
2023-02-09T21:20:47.836Z,13.30
2023-02-09T21:22:52.509Z,13.17
2023-02-09T21:24:54.245Z,14.23
2023-02-09T21:26:55.977Z,12.97
2023-02-09T21:28:58.357Z,12.67
2023-02-09T21:31:00.004Z,14.10
2023-02-09T21:33:01.853Z,12.43
2023-02-09T21:35:04.386Z,12.43
2023-02-09T21:37:10.204Z,12.17
2023-02-09T21:39:12.065Z,11.77
2023-02-09T21:41:36.806Z,12.70
2023-02-09T21:43:38.660Z,14.23
2023-02-09T21:45:40.486Z,12.37
2023-02-09T21:47:42.172Z,12.37
2023-02-09T21:49:43.895Z,13.97
2023-02-09T21:51:45.548Z,12.27
2023-02-09T21:53:47.482Z,13.40
2023-02-09T21:55:49.212Z,12.63
2023-02-09T21:57:50.906Z,12.83
2023-02-09T21:59:53.212Z,13.83
2023-02-09T22:01:55.009Z,11.53
2023-02-09T22:03:58.395Z,11.70
2023-02-09T22:06:02.229Z,13.67
2023-02-09T22:08:03.870Z,12.47
2023-02-09T22:10:06.032Z,13.10
2023-02-09T22:12:08.557Z,12.03
2023-02-09T22:14:10.254Z,11.63
2023-02-09T22:16:18.051Z,11.90
2023-02-09T22:18:19.707Z,11.60
2023-02-09T22:20:21.377Z,12.40
2023-02-09T22:22:23.012Z,11.50
2023-02-09T22:24:25.192Z,12.63
2023-02-09T22:26:26.888Z,10.60
2023-02-09T22:28:29.185Z,12.47
2023-02-09T22:30:30.966Z,11.63
2023-02-09T22:32:32.611Z,12.07
2023-02-09T22:34:34.262Z,11.33
2023-02-09T22:36:36.126Z,10.20
2023-02-09T22:38:38.014Z,10.03
2023-02-09T22:40:39.748Z,10.30
2023-02-09T22:42:41.381Z,10.57
2023-02-09T22:44:43.083Z,9.60
2023-02-09T22:46:46.205Z,9.80
2023-02-09T22:48:52.508Z,9.80
2023-02-09T22:50:54.221Z,9.30
2023-02-09T22:52:55.878Z,10.50
2023-02-09T22:54:59.272Z,10.57
2023-02-09T22:57:01.010Z,11.70
2023-02-09T22:59:02.685Z,10.77
2023-02-09T23:01:05.114Z,11.17
2023-02-09T23:03:06.758Z,11.13
2023-02-09T23:05:08.674Z,11.97
2023-02-09T23:07:10.557Z,12.93
2023-02-09T23:09:13.781Z,12.83
2023-02-09T23:11:17.252Z,11.70
2023-02-09T23:13:18.881Z,12.40
2023-02-09T23:15:20.719Z,14.60
2023-02-09T23:17:22.325Z,13.33
2023-02-09T23:19:24.043Z,13.70
2023-02-09T23:21:28.553Z,13.57
2023-02-09T23:23:30.533Z,13.53
2023-02-09T23:25:32.616Z,12.33
2023-02-09T23:27:34.235Z,12.60
2023-02-09T23:29:35.973Z,11.77
2023-02-09T23:31:37.651Z,11.33
2023-02-09T23:33:39.462Z,12.40
2023-02-09T23:35:41.828Z,12.63
2023-02-09T23:37:43.584Z,12.40
2023-02-09T23:39:45.230Z,11.87
2023-02-09T23:41:46.949Z,14.90
2023-02-09T23:43:48.781Z,14.53
2023-02-09T23:45:50.831Z,12.73
2023-02-09T23:47:52.710Z,12.63
2023-02-09T23:49:54.392Z,11.90
2023-02-09T23:51:56.109Z,12.33
2023-02-09T23:54:00.086Z,14.67
2023-02-09T23:56:04.718Z,13.43
2023-02-09T23:58:06.333Z,12.20
